Fleetwood, North Carolina
Current Conditions -  °F | °C
As of 9:55 AM on Friday 28 Nov 2014 (Local Time) from KGEV Reporting Station
Scattered Clouds Scattered Clouds  
Wind Chill: 19°   Ceiling: Unl
Heat Index: 25°   Visibility: 10mi
Dew Point: 13°   Wind: 5mph
Humidity: 61%   Direction: 260°W
Pressure: 30.25"   Gusts: NA
Location:  36.31°N, 81.51°W
Report Text: KGEV 281455Z AUTO 26004KT 10SM SCT022 M04/M10 A3025 RMK AO2 T10381104
Loading
Personal Weather Stations






























Interactive Weather Map New forecast layout! Learn more

10-Day Weather Forecast

Advertisements
Track Severe Weather on mobile